• Join FlightAware (Why Join?)
  • Login
  • US Flag 
11:16PM EST


 

Airport Tracker/Info


-or-


 

Live Flight TrackerFlight Track Log ✈ AAL832 ✈ 25-Jun-2013 ✈ KORD - KMIA

Flight Track Log - Related Links

Times and Time Zones

All times are in EDT time to prevent confusion due to time zone crossing. See the AAL832 flight status page for this flight to view local times or setup timezone preferences in your user account.

Time Position Orientation Groundspeed Altitude Reporting Facility
EDT Latitude Longitude Course Direction KTS MPH feet Rate Location/Type
05:52PM 41.8833 -87.9000 180° South 192 221 3,400  Level Chicago TRACON
05:53PM 41.6600 -87.7189 180° South  Level Estimated
05:53PM 41.8169 -87.8628 157° South 237 273 5,400  Level Chicago Center
05:54PM 41.5527 -87.6567 176° South  Level Estimated
05:54PM 41.7467 -87.8200 156° South 286 329 7,800  Level Chicago Center
05:55PM 41.4454 -87.5947 180° South  Level Estimated
05:55PM 41.6697 -87.8303 186° South 279 321 10,500  Level Chicago Center
05:56PM 41.3381 -87.5329 180° South  Level Estimated
05:56PM 41.5886 -87.8439 187° South 292 336 12,600  Level Chicago Center
05:57PM 41.4917 -87.8261 172° South 344 396 13,900 2,040 Climbing Chicago Center
05:58PM 41.3681 -87.7986 171° South 369 425 16,900 2,340 Climbing Chicago Center
05:59PM 41.2606 -87.7739 170° South 382 440 18,800 1,680 Climbing Chicago Center
06:00PM 41.1472 -87.7483 170° South 403 464 20,500 1,500 Climbing Chicago Center
06:01PM 41.0317 -87.7217 170° South 417 480 22,000 1,440 Climbing Chicago Center
06:02PM 40.9125 -87.6936 170° South 432 497 23,500 1,320 Climbing Chicago Center
06:03PM 40.7919 -87.6653 170° South 440 506 24,800 1,200 Climbing Chicago Center
06:04PM 40.6450 -87.6156 166° South 463 533 26,100 1,080 Climbing Chicago Center
06:05PM 40.5319 -87.5281 150° Southeast 476 548 27,100 960 Climbing Chicago Center
06:06PM 40.4289 -87.4481 149° Southeast 483 556 28,200 1,200 Climbing Chicago Center
06:07PM 40.2872 -87.3478 152° Southeast 484 557 29,600 1,260 Climbing Chicago Center
06:08PM 40.1622 -87.2869 160° South 480 552 30,900 1,140 Climbing Chicago Center
06:09PM 40.0583 -87.2617 169° South 469 540 31,800 900 Climbing Indianapolis Center
06:10PM 39.9261 -87.2453 175° South 474 545 32,600 720 Climbing Indianapolis Center
06:11PM 39.7925 -87.2256 174° South 484 557 33,400 1,020 Climbing Indianapolis Center
06:12PM 39.6339 -87.2006 173° South 484 557 34,800 780 Climbing Indianapolis Center
06:13PM 39.5022 -87.1800 173° South 480 552 35,100 540 Climbing Indianapolis Center
06:14PM 39.3722 -87.1600 173° South 475 547 36,000 600 Climbing Indianapolis Center
06:16PM 39.2425 -87.1414 174° South 473 544 36,400 420 Climbing Indianapolis Center
06:17PM 39.0942 -87.1189 173° South 480 552 36,900 240 Climbing Indianapolis Center
06:18PM 38.9600 -87.1003 174° South 482 555 37,000  Climbing Indianapolis Center
06:19PM 38.8269 -87.0772 172° South 482 555 37,000  Level Indianapolis Center
06:20PM 38.6942 -87.0572 173° South 478 550 37,000  Level Indianapolis Center
06:21PM 38.5611 -87.0364 173° South 478 550 37,000  Level Indianapolis Center
06:22PM 38.4228 -87.0161 173° South 478 550 37,000  Level Indianapolis Center
06:23PM 38.2911 -86.9956 173° South 479 551 37,000  Level Indianapolis Center
06:24PM 38.1514 -86.9756 174° South 478 550 37,000  Level Indianapolis Center
06:25PM 37.9925 -86.9522 173° South 476 548 37,000  Level Indianapolis Center
06:26PM 37.8608 -86.9328 173° South 474 545 37,000  Level Indianapolis Center
06:27PM 37.7275 -86.9131 173° South 479 551 37,000  Level Indianapolis Center
06:28PM 37.5944 -86.8931 173° South 481 554 37,000  Level Indianapolis Center
06:29PM 37.4481 -86.8742 174° South 480 552 37,000  Level Indianapolis Center
06:30PM 37.3125 -86.8556 174° South 482 555 37,000  Level Indianapolis Center
06:31PM 37.1769 -86.8347 173° South 486 559 37,000  Level Indianapolis Center
06:32PM 37.0408 -86.8139 173° South 486 559 37,000  Level Indianapolis Center
06:33PM 36.9053 -86.7942 173° South 487 560 37,000  Level Indianapolis Center
06:34PM 36.7969 -86.7789 174° South 486 559 37,000  Level Memphis Center
06:35PM 36.6756 -86.7608 173° South 486 559 37,000  Level Memphis Center
06:36PM 36.5442 -86.7642 181° South 476 548 37,000  Level Memphis Center
06:37PM 36.4233 -86.7669 181° South 476 548 37,000  Level Memphis Center
06:38PM 36.2736 -86.7736 182° South 490 564 37,000  Level Memphis Center
06:39PM 36.1278 -86.7747 180° South 489 563 37,000  Level Memphis Center
06:40PM 36.0208 -86.6872 146° Southeast 449 517 37,000  Level Memphis Center
06:41PM 35.9219 -86.5892 141° Southeast 456 525 37,000  Level Memphis Center
06:42PM 35.7617 -86.4342 142° Southeast 458 527 37,000  Level Atlanta Center
06:43PM 35.6614 -86.3392 142° Southeast 453 521 37,000  Level Atlanta Center
06:44PM 35.5608 -86.2394 141° Southeast 458 527 37,000  Level Atlanta Center
06:45PM 35.4728 -86.1581 143° Southeast 458 527 37,000  Level Atlanta Center
06:46PM 35.3639 -86.0481 141° Southeast 458 527 37,000  Level Atlanta Center
06:47PM 35.2611 -85.9542 143° Southeast 458 527 37,000  Level Atlanta Center
06:48PM 35.1725 -85.8708 142° Southeast 458 527 37,000  Level Atlanta Center
06:49PM 35.0697 -85.7719 142° Southeast 458 527 37,000  Level Atlanta Center
06:50PM 34.9708 -85.6786 142° Southeast 458 527 37,000  Level Atlanta Center
06:51PM 34.8700 -85.5806 141° Southeast 458 527 37,000  Level Atlanta Center
06:52PM 34.7667 -85.4875 143° Southeast 458 527 37,000  Level Atlanta Center
06:53PM 34.6675 -85.3925 142° Southeast 458 527 37,000  Level Atlanta Center
06:54PM 34.5683 -85.3000 142° Southeast 458 527 37,000  Level Atlanta Center
06:55PM 34.4692 -85.2078 143° Southeast 458 527 37,000  Level Atlanta Center
06:56PM 34.3656 -85.1083 142° Southeast 451 519 37,000  Level Atlanta Center
06:57PM 34.2619 -85.0164 144° Southeast 446 513 37,000  Level Atlanta Center
06:58PM 34.1667 -84.9275 142° Southeast 451 519 37,000  Level Atlanta Center
06:59PM 34.0881 -84.8539 142° Southeast 451 519 37,000  Level Atlanta Center
07:00PM 33.9758 -84.7528 143° Southeast 451 519 37,000  Level Atlanta Center
07:01PM 33.8783 -84.6669 144° Southeast 451 519 37,000  Level Atlanta Center
07:02PM 33.7806 -84.5786 143° Southeast 451 519 37,000  Level Atlanta Center
07:03PM 33.6767 -84.4881 144° Southeast 451 519 37,000  Level Atlanta Center
07:04PM 33.5642 -84.4103 150° Southeast 445 512 37,000  Level Atlanta Center
07:05PM 33.4450 -84.4097 180° South 418 481 37,000  Level Atlanta Center
07:06PM 33.3325 -84.4217 185° South 417 480 37,000  Level Atlanta Center
07:07PM 33.2114 -84.4336 185° South 424 488 37,000  Level Atlanta Center
07:08PM 33.0964 -84.4356 181° South 424 488 37,000  Level Atlanta Center
07:09PM 32.9794 -84.4425 183° South 424 488 37,000  Level Atlanta Center
07:10PM 32.8647 -84.4494 183° South 424 488 37,000  Level Atlanta Center
07:11PM 32.7625 -84.4464 179° South 424 488 37,000  Level Atlanta Center
07:12PM 32.6436 -84.4383 177° South 417 480 37,000  Level Atlanta Center
07:13PM 32.5286 -84.4208 173° South 422 486 37,000  Level Atlanta Center
07:14PM 32.4078 -84.4031 173° South 427 491 37,000  Level Atlanta Center
07:15PM 32.2908 -84.3878 174° South 427 491 37,000  Level Atlanta Center
07:17PM 32.0850 -84.3492 171° South 431 496 37,000  Level Jacksonville Center
07:18PM 31.9622 -84.3178 168° South 437 503 37,000  Level Jacksonville Center
07:19PM 31.8414 -84.2914 169° South 447 514 37,000  Level Jacksonville Center
07:20PM 31.7186 -84.2628 169° South 447 514 37,000  Level Jacksonville Center
07:21PM 31.6000 -84.2169 162° South 447 514 37,000  Level Jacksonville Center
07:22PM 31.4878 -84.1667 159° South 447 514 37,000  Level Jacksonville Center
07:23PM 31.3714 -84.1214 162° South 447 514 37,000  Level Jacksonville Center
07:24PM 31.2550 -84.0711 160° South 447 514 37,000  Level Jacksonville Center
07:25PM 31.1383 -84.0211 160° South 442 509 37,000  Level Jacksonville Center
07:26PM 31.0239 -83.9761 161° South 442 509 37,000  Level Jacksonville Center
07:27PM 30.9075 -83.9264 160° South 442 509 37,000  Level Jacksonville Center
07:28PM 30.7931 -83.8769 160° South 442 509 37,000  Level Jacksonville Center
07:29PM 30.6744 -83.8297 161° South 442 509 37,000 -60 Level Jacksonville Center
07:30PM 30.5517 -83.7778 160° South 442 509 36,900  Descending Jacksonville Center
07:31PM 30.4369 -83.7311 161° South 436 502 37,000  Climbing Jacksonville Center
07:32PM 30.3206 -83.6842 161° South 436 502 37,000  Level Jacksonville Center
07:33PM 30.2039 -83.6375 161° South 442 509 37,000  Level Jacksonville Center
07:34PM 30.0872 -83.5911 161° South 442 509 37,000  Level Jacksonville Center
07:35PM 29.9664 -83.5422 161° South 442 509 37,000 -60 Level Jacksonville Center
07:36PM 29.8475 -83.4961 161° South 442 509 36,900  Descending Jacksonville Center
07:37PM 29.7289 -83.4475 160° South 442 509 37,000  Climbing Jacksonville Center
07:38PM 29.6100 -83.4014 161° South 442 509 37,000 -60 Level Jacksonville Center
07:39PM 29.4892 -83.3531 161° South 447 514 36,900  Descending Jacksonville Center
07:40PM 29.3744 -83.3050 160° South 447 514 37,000  Climbing Jacksonville Center
07:41PM 29.2578 -83.2567 160° South 442 509 37,000 -60 Level Jacksonville Center
07:42PM 29.1408 -83.2111 161° South 442 509 36,900  Descending Jacksonville Center
07:43PM 29.0242 -83.1656 161° South 442 509 37,000  Climbing Jacksonville Center
07:44PM 28.9114 -83.1178 160° South 442 509 37,000 -60 Level Jacksonville Center
07:45PM 28.7947 -83.0728 161° South 442 509 36,900  Descending Jacksonville Center
07:46PM 28.6819 -83.0275 161° South 442 509 37,000  Climbing Jacksonville Center
07:47PM 28.5756 -82.9872 162° South 442 509 37,000 -60 Level Jacksonville Center
07:50PM 28.2158 -82.8828 166° South 446 513 36,900 -60 Descending Miami Center
07:51PM 28.0931 -82.8761 177° South 440 506 36,900  Level Miami Center
07:52PM 27.9614 -82.8856 184° South 445 512 37,000  Climbing Miami Center
07:53PM 27.8378 -82.8953 184° South 420 483 37,000  Level Miami Center
07:54PM 27.7331 -82.9061 185° South 431 496 37,000  Level Miami Center
07:55PM 27.6117 -82.9161 184° South 436 502 37,000 -60 Level Miami Center
07:56PM 27.4881 -82.9283 185° South 441 507 36,900  Descending Miami Center
07:57PM 27.3708 -82.9433 186° South 441 507 37,000  Climbing Miami Center
07:58PM 27.2472 -82.9531 184° South 441 507 37,000  Level Miami Center
07:59PM 27.1097 -82.9481 178° South 446 513 37,000 -420 Level Miami Center
08:00PM 26.9886 -82.9489 180° South 446 513 36,200 -900 Descending Miami Center
08:01PM 26.8636 -82.9422 177° South 446 513 35,200 -960 Descending Miami Center
08:02PM 26.7392 -82.9242 173° South 446 513 34,300 -960 Descending Miami Center
08:03PM 26.6156 -82.8922 167° South 451 519 33,300 -960 Descending Miami Center
08:04PM 26.4897 -82.8533 165° South 462 532 32,400 -960 Descending Miami Center
08:05PM 26.3800 -82.7828 150° Southeast 462 532 31,400 -1,020 Descending Miami Center
08:06PM 26.3119 -82.6567 121° Southeast 462 532 30,400 -960 Descending Miami Center
08:07PM 26.2758 -82.5136 106° East 448 516 29,500 -1,080 Descending Miami Center
08:08PM 26.2417 -82.3708 105° East 458 527 28,300 -1,620 Descending Miami Center
08:09PM 26.2072 -82.2306 105° East 470 541 26,300 -1,800 Descending Miami Center
08:10PM 26.1783 -82.1089 105° East 462 532 24,700 -1,800 Descending Miami Center
08:11PM 26.1472 -81.9825 105° East 442 509 22,800 -1,860 Descending Miami Center
08:12PM 26.1139 -81.8608 107° East 426 490 21,000 -1,680 Descending Miami Center
08:13PM 26.0886 -81.7442 104° East 403 464 19,500 -1,860 Descending Miami Center
08:14PM 26.0589 -81.6322 106° East 386 444 17,300 -2,100 Descending Miami Center
08:15PM 26.0331 -81.5294 106° East 364 419 15,300 -1,800 Descending Miami Center
08:16PM 26.0089 -81.4292 105° East 348 400 13,800 -1,200 Descending Miami Center
08:17PM 25.9828 -81.3264 106° East 343 395 12,900 -960 Descending Miami Center
08:18PM 25.9589 -81.2239 105° East 343 395 11,900 -1,080 Descending Miami Center
08:19PM 25.9356 -81.1653 114° Southeast 339 390 11,300 -1,020 Descending Miami Center
08:19PM 25.9325 -81.1258 95° East 343 395 10,900 -960 Descending Miami Center
08:20PM 25.9081 -81.0303 106° East 333 383 9,900 -780 Descending Miami Center
08:21PM 25.8981 -80.9378 97° East 314 361 9,400 -840 Descending Miami Center
08:22PM 25.8775 -80.8539 105° East 295 339 8,300 -1,260 Descending Miami Center
08:23PM 25.8567 -80.7725 106° East 281 323 6,900 -1,440 Descending Miami Center
08:24PM 25.8358 -80.6911 106° East 276 318 5,500 -1,440 Descending Miami Center
08:25PM 25.8150 -80.6119 106° East 271 312 4,100 -840 Descending Miami Center
08:26PM 25.7958 -80.5397 106° East 257 296 3,900 -240 Descending Miami Center